Time;durP1;ratioP1;P1;durP2;ratioP2;P2;SDS_P1;SDS_P2;PMS_P1;PMS_P2;Temp;Humidity;BMP_temperature;BMP_pressure;BME280_temperature;BME280_humidity;BME280_pressure;Samples;Min_cycle;Max_cycle;Signal;HPM_P1;HPM_P2
2022/09/24 00:01:09;;;;;;;13.88;8.18;;;13.70;99.90;;;;;;5053866;28;20490;-79
2022/09/24 00:03:34;;;;;;;15.57;9.50;;;13.60;99.90;;;;;;5054815;28;20041;-79
2022/09/24 00:06:02;;;;;;;16.60;10.40;;;13.60;99.90;;;;;;5054692;28;20096;-79
2022/09/24 00:08:28;;;;;;;14.65;8.88;;;13.60;99.90;;;;;;5035999;28;20073;-78
2022/09/24 00:10:55;;;;;;;17.88;8.80;;;13.60;99.90;;;;;;5017545;28;20550;-79
2022/09/24 00:13:22;;;;;;;18.45;10.40;;;13.60;99.90;;;;;;5019416;28;20094;-78
2022/09/24 00:15:49;;;;;;;16.40;10.00;;;13.60;99.90;;;;;;5053848;28;20431;-78
2022/09/24 00:18:17;;;;;;;17.75;9.82;;;13.60;99.90;;;;;;5026604;28;20041;-78
2022/09/24 00:20:43;;;;;;;13.27;7.43;;;13.50;99.90;;;;;;5018302;28;20514;-78
2022/09/24 00:23:10;;;;;;;16.77;8.95;;;13.60;99.90;;;;;;5034440;28;20033;-78
2022/09/24 00:28:32;;;;;;;18.13;9.73;;;13.50;99.90;;;;;;5043981;28;20475;-78
2022/09/24 00:30:58;;;;;;;17.27;10.38;;;13.50;99.90;;;;;;5036391;28;20395;-78
2022/09/24 00:33:27;;;;;;;17.45;9.32;;;13.50;99.90;;;;;;5017960;28;20383;-78
2022/09/24 00:36:01;;;;;;;16.55;9.02;;;13.60;99.90;;;;;;5034254;28;20400;-78
2022/09/24 00:38:28;;;;;;;13.73;8.20;;;13.60;99.90;;;;;;5034595;28;20088;-78
2022/09/24 00:40:54;;;;;;;14.88;8.77;;;13.60;99.90;;;;;;5052941;28;20043;-78
2022/09/24 00:43:29;;;;;;;15.50;8.80;;;13.60;99.90;;;;;;5074241;28;20032;-78
2022/09/24 00:46:08;;;;;;;17.27;9.07;;;13.60;99.90;;;;;;5045998;28;20047;-78
2022/09/24 00:48:35;;;;;;;16.42;8.88;;;13.60;99.90;;;;;;5035990;28;20037;-78
2022/09/24 00:51:03;;;;;;;14.18;8.68;;;13.70;99.90;;;;;;5040535;28;20045;-78
2022/09/24 00:53:32;;;;;;;15.35;9.70;;;13.70;99.90;;;;;;5054266;28;20072;-78
2022/09/24 00:55:59;;;;;;;17.70;10.02;;;13.70;99.90;;;;;;5037161;28;20044;-78
2022/09/24 00:58:27;;;;;;;16.13;9.80;;;13.70;99.90;;;;;;5036998;28;20041;-78
2022/09/24 01:01:03;;;;;;;20.15;11.73;;;13.70;99.90;;;;;;5032194;28;20041;-78
2022/09/24 01:03:29;;;;;;;;;;;13.70;99.90;;;;;;5054395;28;20047;-78
2022/09/24 01:05:55;;;;;;;22.67;12.17;;;13.70;99.90;;;;;;5036925;28;19916;-78
2022/09/24 01:08:21;;;;;;;18.25;10.50;;;13.70;99.90;;;;;;5053425;28;20056;-78
2022/09/24 01:10:59;;;;;;;18.08;12.15;;;13.70;99.90;;;;;;5027409;28;20042;-78
2022/09/24 01:13:54;;;;;;;17.23;10.20;;;13.80;99.90;;;;;;5053391;28;20065;-78
2022/09/24 01:17:01;;;;;;;17.85;10.38;;;13.70;99.90;;;;;;5053159;28;20056;-78
2022/09/24 01:19:54;;;;;;;24.70;13.48;;;13.80;99.90;;;;;;4973162;28;20077;-78
2022/09/24 01:22:47;;;;;;;17.20;10.27;;;13.80;99.90;;;;;;5046386;28;20071;-78
2022/09/24 01:25:35;;;;;;;17.08;9.70;;;13.70;99.90;;;;;;5022029;28;20047;-78
2022/09/24 01:28:21;;;;;;;15.65;9.20;;;13.70;99.90;;;;;;5033748;28;20562;-78
2022/09/24 01:30:53;;;;;;;14.07;8.35;;;13.70;99.90;;;;;;5053161;28;20033;-78
2022/09/24 01:33:24;;;;;;;13.57;7.28;;;13.70;99.90;;;;;;5052530;28;20120;-78
2022/09/24 01:35:54;;;;;;;15.55;8.88;;;13.70;99.90;;;;;;5016672;28;20034;-78
2022/09/24 01:38:27;;;;;;;16.92;8.75;;;13.80;99.90;;;;;;5023081;28;20044;-79
2022/09/24 01:40:54;;;;;;;13.63;8.02;;;13.80;99.90;;;;;;5016357;28;20049;-78
2022/09/24 01:43:23;;;;;;;15.18;8.13;;;13.80;99.90;;;;;;5033038;28;20468;-78
2022/09/24 01:45:51;;;;;;;15.55;8.35;;;13.80;99.90;;;;;;5033913;28;20048;-78
2022/09/24 01:48:20;;;;;;;13.00;7.47;;;13.80;99.90;;;;;;5020723;28;20050;-79
2022/09/24 01:50:56;;;;;;;13.27;7.97;;;13.80;99.90;;;;;;5045614;28;20483;-79
2022/09/24 01:53:30;;;;;;;13.27;7.82;;;13.80;99.90;;;;;;5033033;28;20399;-79
2022/09/24 01:56:06;;;;;;;13.48;7.38;;;13.80;99.90;;;;;;5033856;28;20041;-79
2022/09/24 01:58:54;;;;;;;18.27;10.25;;;13.90;99.90;;;;;;5017919;28;20428;-79
2022/09/24 02:01:35;;;;;;;13.52;8.15;;;13.90;99.90;;;;;;5048589;28;20552;-79
2022/09/24 02:04:07;;;;;;;14.95;8.40;;;13.80;99.90;;;;;;5016052;28;20530;-79
2022/09/24 02:06:41;;;;;;;14.13;7.63;;;13.90;99.90;;;;;;5033603;28;20063;-79
2022/09/24 02:09:37;;;;;;;19.15;11.15;;;13.90;99.90;;;;;;5041625;28;20522;-79
2022/09/24 02:12:28;;;;;;;17.95;10.00;;;13.80;99.90;;;;;;5050730;28;20056;-79
2022/09/24 02:15:04;;;;;;;18.02;10.77;;;13.90;99.90;;;;;;5044942;28;20081;-79
2022/09/24 02:17:33;;;;;;;15.13;8.68;;;13.80;99.90;;;;;;5032700;28;20068;-79
2022/09/24 02:20:02;;;;;;;13.90;7.53;;;13.80;99.90;;;;;;5041845;28;20048;-79
2022/09/24 02:22:29;;;;;;;20.20;11.88;;;13.80;99.90;;;;;;5046997;28;20115;-79
2022/09/24 02:24:59;;;;;;;22.25;11.82;;;13.80;99.90;;;;;;5052787;28;20379;-80
2022/09/24 02:27:27;;;;;;;17.38;9.25;;;13.80;99.90;;;;;;5052610;28;20106;-80
2022/09/24 02:29:57;;;;;;;14.77;7.68;;;13.70;99.90;;;;;;5051878;28;20052;-80
2022/09/24 02:32:28;;;;;;;23.58;11.45;;;13.70;99.90;;;;;;5040149;28;20044;-80
2022/09/24 02:35:03;;;;;;;17.20;8.35;;;13.80;99.90;;;;;;5016128;28;20044;-80
2022/09/24 02:37:33;;;;;;;11.90;7.72;;;13.70;99.90;;;;;;5047040;28;20029;-80
2022/09/24 02:39:59;;;;;;;13.20;7.00;;;13.70;99.90;;;;;;5044130;28;20041;-80
2022/09/24 02:42:25;;;;;;;15.02;9.30;;;13.70;99.90;;;;;;5022485;28;20044;-80
2022/09/24 02:44:51;;;;;;;18.08;9.65;;;13.70;99.90;;;;;;5051614;28;20036;-80
2022/09/24 02:47:18;;;;;;;18.88;9.52;;;13.70;99.90;;;;;;5047388;28;20088;-80
2022/09/24 02:49:43;;;;;;;11.38;6.97;;;13.70;99.90;;;;;;5044983;28;20056;-80
2022/09/24 02:52:09;;;;;;;8.55;3.85;;;13.70;99.90;;;;;;5050982;28;20041;-80
2022/09/24 02:54:35;;;;;;;7.72;4.45;;;13.70;99.90;;;;;;5038320;28;20037;-80
2022/09/24 02:57:00;;;;;;;5.63;2.92;;;13.70;99.90;;;;;;5056097;28;20086;-80
2022/09/24 02:59:26;;;;;;;4.93;2.63;;;13.70;99.90;;;;;;5056105;28;20056;-80
2022/09/24 03:01:52;;;;;;;6.05;2.72;;;13.70;99.90;;;;;;5056338;28;20378;-80
2022/09/24 03:04:17;;;;;;;4.47;2.30;;;13.70;99.90;;;;;;5023906;28;20048;-80
2022/09/24 03:06:43;;;;;;;4.90;2.63;;;13.70;99.90;;;;;;5019725;28;20045;-80
2022/09/24 03:09:11;;;;;;;5.22;2.40;;;13.70;99.90;;;;;;5036002;28;20510;-80
2022/09/24 03:11:37;;;;;;;4.10;2.10;;;13.60;99.90;;;;;;5027784;28;20060;-80
2022/09/24 03:14:03;;;;;;;3.40;2.10;;;13.70;99.90;;;;;;5058176;28;20051;-80
2022/09/24 03:16:29;;;;;;;3.42;2.03;;;13.70;99.90;;;;;;5052119;28;20432;-80
2022/09/24 03:18:54;;;;;;;3.60;1.98;;;13.70;99.90;;;;;;5055917;28;20029;-80
2022/09/24 03:21:21;;;;;;;3.00;1.70;;;13.60;99.90;;;;;;5055776;28;20552;-80
2022/09/24 03:23:47;;;;;;;2.97;1.92;;;13.70;99.90;;;;;;5032439;28;20103;-80
2022/09/24 03:26:13;;;;;;;6.15;2.38;;;13.70;99.90;;;;;;5026621;28;20091;-80
2022/09/24 03:28:39;;;;;;;3.38;1.83;;;13.70;99.90;;;;;;5050676;28;20045;-80
2022/09/24 03:31:06;;;;;;;3.42;1.90;;;13.70;99.90;;;;;;5055271;28;20139;-80
2022/09/24 03:33:41;;;;;;;3.53;1.92;;;13.60;99.90;;;;;;5055342;28;20041;-80
2022/09/24 03:36:21;;;;;;;3.15;1.70;;;13.70;99.90;;;;;;5028669;28;20048;-80
2022/09/24 03:38:48;;;;;;;3.95;1.80;;;13.60;99.90;;;;;;5046264;28;20052;-80
2022/09/24 03:41:15;;;;;;;5.53;2.10;;;13.70;99.90;;;;;;5055576;28;20045;-80
2022/09/24 03:43:41;;;;;;;2.92;1.50;;;13.60;99.90;;;;;;5038726;28;20045;-80
2022/09/24 03:46:08;;;;;;;3.17;1.85;;;13.70;99.90;;;;;;5010944;28;20045;-80
2022/09/24 03:48:35;;;;;;;3.65;2.20;;;13.70;99.90;;;;;;5038860;28;20069;-80
2022/09/24 03:51:06;;;;;;;3.15;1.75;;;13.70;99.90;;;;;;5040747;28;20120;-80
2022/09/24 03:53:32;;;;;;;3.10;1.67;;;13.70;99.90;;;;;;5018798;28;20555;-80
2022/09/24 03:55:58;;;;;;;3.40;1.88;;;13.70;99.90;;;;;;5045284;28;20037;-80
2022/09/24 03:58:25;;;;;;;3.92;1.95;;;13.70;99.90;;;;;;5053059;28;20089;-80
2022/09/24 04:00:54;;;;;;;4.93;2.20;;;13.70;99.90;;;;;;5045204;28;20045;-80
2022/09/24 04:03:21;;;;;;;4.28;2.35;;;13.70;99.90;;;;;;5051001;28;20049;-80
2022/09/24 04:05:48;;;;;;;5.72;2.50;;;13.70;99.90;;;;;;5052295;28;20044;-80
2022/09/24 04:08:14;;;;;;;3.97;2.15;;;13.70;99.90;;;;;;5034282;28;20406;-80
2022/09/24 04:10:39;;;;;;;4.45;2.45;;;13.70;99.90;;;;;;5017921;28;20033;-80
2022/09/24 04:13:05;;;;;;;7.82;3.63;;;13.70;99.90;;;;;;5020360;28;20059;-80
2022/09/24 04:15:32;;;;;;;6.53;3.00;;;13.70;99.90;;;;;;5054279;28;20041;-80
2022/09/24 04:17:58;;;;;;;5.45;2.67;;;13.70;99.90;;;;;;5035843;28;20037;-80
2022/09/24 04:20:26;;;;;;;6.13;3.20;;;13.70;99.90;;;;;;5026707;28;20044;-80
2022/09/24 04:22:56;;;;;;;6.47;2.47;;;13.70;99.90;;;;;;5034298;28;20045;-80
2022/09/24 04:25:23;;;;;;;5.05;2.22;;;13.70;99.90;;;;;;5034036;28;20033;-80
2022/09/24 04:27:58;;;;;;;4.22;2.22;;;13.70;99.90;;;;;;5026205;28;20037;-80
2022/09/24 04:30:25;;;;;;;7.22;2.45;;;13.70;99.90;;;;;;5034130;28;20029;-80
2022/09/24 04:32:51;;;;;;;7.95;2.88;;;13.70;99.90;;;;;;5053310;28;20037;-80
2022/09/24 04:35:22;;;;;;;5.38;1.70;;;13.70;99.90;;;;;;5053699;28;20037;-80
2022/09/24 04:37:48;;;;;;;6.82;2.10;;;13.70;99.90;;;;;;5052209;28;20045;-80
2022/09/24 04:40:14;;;;;;;2.08;1.45;;;13.70;99.90;;;;;;5050230;28;20132;-80
2022/09/24 04:42:43;;;;;;;2.53;1.25;;;13.60;99.90;;;;;;5033545;28;20120;-80
2022/09/24 04:45:10;;;;;;;1.77;0.90;;;13.60;99.90;;;;;;5052631;28;20037;-80
2022/09/24 04:47:39;;;;;;;1.88;1.00;;;13.60;99.90;;;;;;5052367;28;20128;-80
2022/09/24 04:50:06;;;;;;;2.03;0.68;;;13.60;99.90;;;;;;5036865;28;20034;-80
2022/09/24 04:52:32;;;;;;;2.80;0.90;;;13.60;99.90;;;;;;5048428;28;20036;-80
2022/09/24 04:54:58;;;;;;;1.15;0.85;;;13.60;99.90;;;;;;5033409;28;20040;-80
2022/09/24 04:57:25;;;;;;;2.55;0.68;;;13.60;99.90;;;;;;5033407;28;20052;-80
2022/09/24 04:59:51;;;;;;;4.03;1.02;;;13.60;99.90;;;;;;5045484;28;20115;-80
2022/09/24 05:02:17;;;;;;;1.67;1.02;;;13.60;99.90;;;;;;5021142;28;20535;-80
2022/09/24 05:04:43;;;;;;;4.68;1.67;;;13.60;99.90;;;;;;5033164;28;20046;-80
2022/09/24 05:07:10;;;;;;;2.50;1.00;;;13.50;99.90;;;;;;5027919;28;20093;-80
2022/09/24 05:09:35;;;;;;;4.55;0.82;;;13.50;99.90;;;;;;5046146;28;20493;-80
2022/09/24 05:12:02;;;;;;;4.18;0.60;;;13.50;99.90;;;;;;5026564;28;20147;-80
2022/09/24 05:14:28;;;;;;;3.25;1.00;;;13.50;99.90;;;;;;5016839;28;20045;-80
2022/09/24 05:16:53;;;;;;;1.27;0.57;;;13.50;99.90;;;;;;5032698;28;20047;-80
2022/09/24 05:19:19;;;;;;;2.78;0.90;;;13.40;99.90;;;;;;5035284;28;20132;-80
2022/09/24 05:21:45;;;;;;;2.30;0.63;;;13.40;99.90;;;;;;5018928;28;20044;-80
2022/09/24 05:24:11;;;;;;;1.38;0.50;;;13.30;99.90;;;;;;5036420;28;20056;-80
2022/09/24 05:29:21;;;;;;;3.13;0.80;;;13.30;99.90;;;;;;5052492;28;20052;-80
2022/09/24 05:31:47;;;;;;;0.73;0.32;;;13.30;99.90;;;;;;5031796;28;20032;-80
2022/09/24 05:34:13;;;;;;;0.57;0.50;;;13.20;99.90;;;;;;5020820;28;20033;-80
2022/09/24 05:36:42;;;;;;;1.20;0.60;;;13.20;99.90;;;;;;5036217;28;20430;-80
2022/09/24 05:39:08;;;;;;;3.97;0.90;;;13.20;99.90;;;;;;5052508;28;20398;-80
2022/09/24 05:41:34;;;;;;;2.47;0.70;;;13.20;99.90;;;;;;5025562;28;20498;-80
2022/09/24 05:44:00;;;;;;;0.73;0.40;;;13.20;99.90;;;;;;5016289;28;20049;-80
2022/09/24 05:46:26;;;;;;;1.98;0.77;;;13.20;99.90;;;;;;5051474;28;20043;-80
2022/09/24 05:48:51;;;;;;;0.85;0.43;;;13.20;99.90;;;;;;5046672;28;20476;-81
2022/09/24 05:51:17;;;;;;;1.40;0.65;;;13.20;99.90;;;;;;5031733;28;20029;-80
2022/09/24 05:53:43;;;;;;;6.25;0.68;;;13.20;99.90;;;;;;5032579;28;20080;-80
2022/09/24 05:56:09;;;;;;;6.35;0.68;;;13.10;99.90;;;;;;5032307;28;20041;-80
2022/09/24 05:58:35;;;;;;;1.42;0.47;;;13.20;99.90;;;;;;5021139;28;20048;-82
2022/09/24 06:01:01;;;;;;;1.30;0.63;;;13.20;99.90;;;;;;5028117;28;20128;-81
2022/09/24 06:03:30;;;;;;;5.05;0.75;;;13.20;99.90;;;;;;5029782;28;20135;-80
2022/09/24 06:06:02;;;;;;;2.13;1.00;;;13.20;99.90;;;;;;5017332;28;20045;-80
2022/09/24 06:08:30;;;;;;;0.85;0.50;;;13.20;99.90;;;;;;5032114;28;20038;-80
2022/09/24 06:11:04;;;;;;;3.88;0.85;;;13.30;99.90;;;;;;5032021;28;20049;-80
2022/09/24 06:13:33;;;;;;;2.30;0.60;;;13.30;99.90;;;;;;5035637;28;20060;-80
2022/09/24 06:16:04;;;;;;;0.68;0.55;;;13.30;99.90;;;;;;5032589;28;20381;-79
2022/09/24 06:18:30;;;;;;;0.50;0.50;;;13.40;99.90;;;;;;5032874;28;20053;-79
2022/09/24 06:21:01;;;;;;;1.23;0.60;;;13.40;99.90;;;;;;5032481;28;20055;-79
2022/09/24 06:23:28;;;;;;;1.27;0.52;;;13.50;99.90;;;;;;5050740;28;20052;-79
2022/09/24 06:25:53;;;;;;;1.55;0.63;;;13.60;99.90;;;;;;5020139;28;20522;-79
2022/09/24 06:28:19;;;;;;;4.32;1.00;;;13.60;99.90;;;;;;5015544;23;20482;-81
2022/09/24 06:30:45;;;;;;;1.90;0.45;;;13.60;99.90;;;;;;4971344;28;20037;-81
2022/09/24 06:33:12;;;;;;;0.75;0.57;;;13.70;99.90;;;;;;5002791;28;20060;-81
2022/09/24 06:35:43;;;;;;;3.83;0.88;;;13.70;99.90;;;;;;5021859;28;20471;-81
2022/09/24 06:38:15;;;;;;;1.80;0.70;;;13.70;99.90;;;;;;5005199;28;20510;-81
2022/09/24 06:40:42;;;;;;;2.72;0.70;;;13.80;99.90;;;;;;5003183;28;20033;-82
2022/09/24 06:43:10;;;;;;;1.80;0.63;;;13.80;99.90;;;;;;5002711;28;20052;-82
2022/09/24 06:45:35;;;;;;;1.85;0.52;;;13.80;99.90;;;;;;4985369;28;20045;-82
2022/09/24 06:48:03;;;;;;;0.70;0.45;;;13.80;99.90;;;;;;4986809;28;20045;-82
2022/09/24 06:50:31;;;;;;;1.70;0.68;;;13.80;99.90;;;;;;5003253;28;20053;-82
2022/09/24 06:52:57;;;;;;;5.75;0.95;;;13.90;99.90;;;;;;5001182;28;20081;-82
2022/09/24 06:55:24;;;;;;;4.25;0.75;;;13.90;99.90;;;;;;5000930;28;20088;-82
2022/09/24 06:57:50;;;;;;;5.72;1.05;;;14.00;99.90;;;;;;5003395;28;20125;-82
2022/09/24 07:00:16;;;;;;;2.03;0.50;;;14.00;99.90;;;;;;5012716;28;20087;-82
2022/09/24 07:02:42;;;;;;;2.08;0.90;;;14.00;99.90;;;;;;5028822;28;20052;-83
2022/09/24 07:05:08;;;;;;;2.10;0.52;;;14.10;99.90;;;;;;5001634;28;20030;-82
2022/09/24 07:07:35;;;;;;;4.45;0.73;;;14.20;99.90;;;;;;5014595;28;20176;-82
2022/09/24 07:10:06;;;;;;;2.10;0.77;;;14.30;99.90;;;;;;5035348;28;20037;-82
2022/09/24 07:12:35;;;;;;;1.70;0.57;;;14.30;99.90;;;;;;4986531;28;20073;-82
2022/09/24 07:15:01;;;;;;;2.10;0.70;;;14.40;99.90;;;;;;5018764;28;20080;-82
2022/09/24 07:17:27;;;;;;;0.80;0.47;;;14.50;99.90;;;;;;5018389;28;20106;-82
2022/09/24 07:19:54;;;;;;;1.85;0.60;;;14.50;99.90;;;;;;4994941;28;20088;-82
2022/09/24 07:22:20;;;;;;;0.30;0.30;;;14.50;99.90;;;;;;4984581;28;20044;-82
2022/09/24 07:24:52;;;;;;;3.33;0.88;;;14.70;99.90;;;;;;4979611;28;20395;-82
2022/09/24 07:27:20;;;;;;;0.98;0.50;;;15.00;99.90;;;;;;5011210;28;20052;-82
2022/09/24 07:29:48;;;;;;;1.42;0.45;;;14.80;99.90;;;;;;5015586;28;20058;-82
2022/09/24 07:32:16;;;;;;;3.50;0.95;;;14.90;99.90;;;;;;5010775;28;20045;-82
2022/09/24 07:34:44;;;;;;;2.00;0.85;;;15.00;99.90;;;;;;4995277;28;20042;-82
2022/09/24 07:37:11;;;;;;;1.00;0.25;;;15.00;99.90;;;;;;4981803;28;20045;-82
2022/09/24 07:39:37;;;;;;;3.30;0.95;;;15.10;99.90;;;;;;5019891;28;20041;-82
2022/09/24 07:42:04;;;;;;;2.05;0.77;;;15.20;99.90;;;;;;4983188;28;20451;-81
2022/09/24 07:44:30;;;;;;;2.17;0.63;;;15.30;99.90;;;;;;5019804;28;20439;-81
2022/09/24 07:46:57;;;;;;;1.73;0.82;;;15.40;99.90;;;;;;4997664;28;20041;-81
2022/09/24 07:49:23;;;;;;;2.25;0.65;;;15.40;99.90;;;;;;5017895;28;20045;-81
2022/09/24 07:51:49;;;;;;;1.08;0.85;;;15.50;99.90;;;;;;4980195;28;20047;-81
2022/09/24 07:54:15;;;;;;;3.65;0.70;;;15.60;99.90;;;;;;5004630;28;20439;-82
2022/09/24 07:56:41;;;;;;;0.45;0.28;;;15.70;99.90;;;;;;5021301;28;20033;-82
2022/09/24 07:59:09;;;;;;;1.00;0.45;;;15.70;99.90;;;;;;5017260;28;20046;-82
2022/09/24 08:01:36;;;;;;;1.67;0.93;;;15.80;99.90;;;;;;4967348;28;20046;-83
2022/09/24 08:04:03;;;;;;;1.52;0.57;;;15.90;99.90;;;;;;4998288;28;20049;-83
2022/09/24 08:06:32;;;;;;;0.95;0.35;;;16.00;99.90;;;;;;4998389;28;20128;-83
2022/09/24 08:08:58;;;;;;;1.95;0.40;;;16.20;99.90;;;;;;4998395;28;20184;-83
2022/09/24 08:11:24;;;;;;;2.63;0.40;;;16.40;99.90;;;;;;4998094;28;20034;-82
2022/09/24 08:13:50;;;;;;;0.52;0.43;;;16.70;99.90;;;;;;4993836;28;20042;-82
2022/09/24 08:16:16;;;;;;;1.83;0.32;;;17.00;99.90;;;;;;5046814;28;20060;-82
2022/09/24 08:18:42;;;;;;;2.28;0.75;;;17.20;99.90;;;;;;5031279;28;20049;-81
2022/09/24 08:21:10;;;;;;;1.27;0.85;;;17.40;99.90;;;;;;5015857;28;20041;-81
2022/09/24 08:23:38;;;;;;;0.88;0.43;;;17.60;99.90;;;;;;5018978;28;20043;-81
2022/09/24 08:26:04;;;;;;;1.25;0.45;;;17.60;99.90;;;;;;5024928;28;20107;-81
2022/09/24 08:28:30;;;;;;;1.13;0.28;;;17.70;99.90;;;;;;5013993;28;20057;-81
2022/09/24 08:31:01;;;;;;;1.65;0.60;;;17.90;99.90;;;;;;5014283;28;20092;-81
2022/09/24 08:33:27;;;;;;;0.60;0.50;;;18.10;99.90;;;;;;5002773;28;20040;-83
2022/09/24 08:35:53;;;;;;;1.92;0.63;;;18.40;99.90;;;;;;5017018;28;20045;-82
2022/09/24 08:38:21;;;;;;;3.97;0.55;;;18.70;99.90;;;;;;4997792;28;20141;-82
2022/09/24 08:41:08;;;;;;;0.45;0.30;;;19.30;99.90;;;;;;4997806;28;20054;-82
2022/09/24 08:43:33;;;;;;;3.20;0.52;;;20.10;99.90;;;;;;4984269;28;20054;-82
2022/09/24 08:48:51;;;;;;;5.05;0.90;;;20.30;99.90;;;;;;5007355;28;20096;-82
2022/09/24 08:51:19;;;;;;;4.80;0.85;;;19.90;99.90;;;;;;4989839;28;20506;-82
2022/09/24 08:53:54;;;;;;;1.75;0.40;;;19.40;99.90;;;;;;5000401;28;20503;-81
2022/09/24 08:56:25;;;;;;;2.40;0.40;;;18.90;99.90;;;;;;5019805;28;20129;-81
2022/09/24 08:59:08;;;;;;;3.20;0.47;;;18.50;99.90;;;;;;5022226;28;20049;-81
2022/09/24 09:01:56;;;;;;;3.20;1.08;;;18.10;99.90;;;;;;5013189;28;20077;-81
2022/09/24 09:04:26;;;;;;;7.75;0.95;;;17.70;99.90;;;;;;4997666;28;20050;-81
2022/09/24 09:06:52;;;;;;;0.88;0.40;;;17.40;99.90;;;;;;5014285;28;20116;-81
2022/09/24 09:09:37;;;;;;;2.92;0.80;;;17.20;99.90;;;;;;5017433;28;20045;-81
2022/09/24 09:12:09;;;;;;;2.53;0.80;;;17.10;99.90;;;;;;5024350;28;20380;-81
2022/09/24 09:15:11;;;;;;;3.50;0.63;;;17.00;99.90;;;;;;4997978;28;20073;-81
2022/09/24 09:17:55;;;;;;;1.88;0.35;;;17.10;99.90;;;;;;5010648;28;20045;-82
2022/09/24 09:20:42;;;;;;;1.38;0.82;;;17.00;99.90;;;;;;5013812;28;20038;-82
2022/09/24 09:23:13;;;;;;;;;;;16.90;99.90;;;;;;5014076;28;20491;-81
2022/09/24 09:25:43;;;;;;;6.43;0.63;;;16.90;99.90;;;;;;5014078;28;19918;-81
2022/09/24 09:28:16;;;;;;;2.92;0.45;;;16.80;99.90;;;;;;5015135;28;20057;-81
2022/09/24 09:30:54;;;;;;;4.78;1.08;;;16.60;99.90;;;;;;4998179;28;20065;-81
2022/09/24 09:33:35;;;;;;;0.75;0.60;;;16.70;99.90;;;;;;4977482;28;20050;-81
2022/09/24 09:36:22;;;;;;;3.92;0.60;;;16.70;99.90;;;;;;4978182;28;20077;-81
2022/09/24 09:38:57;;;;;;;1.88;0.90;;;16.70;99.90;;;;;;4977445;28;20046;-81
2022/09/24 09:41:40;;;;;;;1.75;0.95;;;16.70;99.90;;;;;;4993520;28;20095;-81
2022/09/24 09:44:25;;;;;;;2.63;0.60;;;16.80;99.90;;;;;;4977639;28;20042;-81
2022/09/24 09:47:10;;;;;;;1.63;0.47;;;16.80;99.90;;;;;;4994017;28;20126;-81
2022/09/24 09:49:37;;;;;;;1.80;0.40;;;16.80;99.90;;;;;;4993664;28;20038;-81
2022/09/24 09:52:17;;;;;;;6.70;0.93;;;16.90;99.90;;;;;;4993602;28;20046;-80
2022/09/24 09:54:43;;;;;;;2.17;0.57;;;17.00;99.90;;;;;;4993734;28;20042;-81
2022/09/24 09:57:21;;;;;;;2.28;0.50;;;17.00;99.90;;;;;;5005316;28;20184;-82
2022/09/24 09:59:53;;;;;;;3.03;0.50;;;17.00;99.90;;;;;;5013174;28;20407;-81
2022/09/24 10:02:49;;;;;;;1.38;0.40;;;16.90;99.90;;;;;;5011885;28;20050;-81
2022/09/24 10:05:20;;;;;;;5.07;0.55;;;16.90;99.90;;;;;;5011628;28;20053;-81
2022/09/24 10:07:46;;;;;;;1.38;0.30;;;16.90;99.90;;;;;;4996817;28;20392;-81
2022/09/24 10:10:16;;;;;;;2.92;1.00;;;17.00;99.90;;;;;;4996486;28;20076;-81
2022/09/24 10:12:42;;;;;;;2.65;0.88;;;16.70;99.90;;;;;;4996652;28;20053;-81
2022/09/24 10:15:15;;;;;;;2.72;0.43;;;16.60;99.90;;;;;;4996482;28;20037;-81
2022/09/24 10:17:43;;;;;;;2.72;0.40;;;16.50;99.90;;;;;;5045804;28;20045;-81
2022/09/24 10:20:17;;;;;;;1.00;0.40;;;16.40;99.90;;;;;;4996717;28;20068;-81
2022/09/24 10:22:51;;;;;;;2.78;0.63;;;16.40;99.90;;;;;;5012888;28;20052;-81
2022/09/24 10:25:23;;;;;;;2.30;0.75;;;16.40;99.90;;;;;;4996899;28;20041;-81
2022/09/24 10:27:51;;;;;;;3.22;1.17;;;16.40;99.90;;;;;;5012890;28;20050;-82
2022/09/24 10:30:32;;;;;;;2.40;0.75;;;16.30;99.90;;;;;;4981073;28;20060;-81
2022/09/24 10:33:01;;;;;;;3.20;1.13;;;16.30;99.90;;;;;;5013213;28;20038;-81
2022/09/24 10:35:28;;;;;;;2.63;0.88;;;16.20;99.90;;;;;;5013025;28;20054;-81
2022/09/24 10:37:58;;;;;;;6.57;0.82;;;16.20;99.90;;;;;;5012994;28;20037;-81
2022/09/24 10:40:36;;;;;;;0.90;0.52;;;16.20;99.90;;;;;;5012895;28;20388;-81
2022/09/24 10:43:04;;;;;;;0.90;0.65;;;16.20;99.90;;;;;;4981114;28;20041;-81
2022/09/24 10:45:46;;;;;;;1.95;0.40;;;16.30;99.90;;;;;;5013477;28;20060;-81
2022/09/24 10:48:18;;;;;;;0.75;0.55;;;16.30;99.90;;;;;;5031858;28;20045;-81
2022/09/24 10:51:01;;;;;;;2.10;0.47;;;16.40;99.90;;;;;;5012163;28;20124;-81
2022/09/24 10:53:38;;;;;;;3.58;0.50;;;16.40;99.90;;;;;;5012852;28;20073;-81
2022/09/24 10:56:15;;;;;;;1.25;0.88;;;16.60;99.90;;;;;;4997385;28;20500;-81
2022/09/24 10:59:06;;;;;;;4.40;0.82;;;16.60;99.90;;;;;;5012173;28;20061;-81
2022/09/24 11:01:59;;;;;;;1.85;0.38;;;16.90;99.90;;;;;;5028095;28;20050;-81
2022/09/24 11:04:38;;;;;;;1.40;0.40;;;17.10;99.90;;;;;;5012553;28;20451;-82
2022/09/24 11:07:22;;;;;;;3.78;0.93;;;17.40;99.90;;;;;;5007399;28;20045;-81
2022/09/24 11:10:01;;;;;;;1.92;0.70;;;17.70;99.90;;;;;;5000692;28;20399;-81
2022/09/24 11:12:54;;;;;;;1.60;0.88;;;18.10;99.90;;;;;;5021578;28;20038;-81
2022/09/24 11:15:37;;;;;;;4.55;0.75;;;18.50;99.90;;;;;;4997667;28;20046;-81
2022/09/24 11:18:44;;;;;;;1.65;0.50;;;18.70;99.90;;;;;;5029946;28;20042;-81
2022/09/24 11:21:24;;;;;;;0.90;0.52;;;18.90;99.90;;;;;;5013458;28;20096;-81
2022/09/24 11:24:18;;;;;;;1.17;0.45;;;19.10;99.90;;;;;;5046433;28;20069;-81
2022/09/24 11:27:21;;;;;;;4.03;0.90;;;19.00;99.90;;;;;;5014055;28;20132;-81
2022/09/24 11:29:46;;;;;;;1.35;0.40;;;18.90;99.90;;;;;;4998760;28;20507;-81
2022/09/24 11:32:28;;;;;;;2.38;0.65;;;18.80;99.90;;;;;;5007280;28;20124;-81
2022/09/24 11:35:28;;;;;;;2.65;0.73;;;18.60;99.90;;;;;;5007395;28;20034;-82
2022/09/24 11:38:12;;;;;;;3.10;0.68;;;18.40;99.90;;;;;;5011302;28;20066;-81
2022/09/24 11:40:54;;;;;;;2.58;0.68;;;18.30;99.90;;;;;;4997826;28;20038;-81
2022/09/24 11:43:48;;;;;;;1.10;0.40;;;17.90;99.90;;;;;;5020785;28;20556;-80
2022/09/24 11:46:19;;;;;;;4.30;1.33;;;17.50;99.90;;;;;;5001035;28;20041;-81
2022/09/24 11:49:04;;;;;;;2.85;0.50;;;17.40;99.90;;;;;;4998007;28;20052;-81
2022/09/24 11:51:58;;;;;;;3.47;0.73;;;17.20;99.90;;;;;;4988228;28;20038;-81
2022/09/24 11:54:39;;;;;;;1.92;1.05;;;17.10;99.90;;;;;;4994915;28;20387;-80
2022/09/24 11:57:14;;;;;;;2.55;0.73;;;17.00;99.90;;;;;;5010710;28;20069;-81
2022/09/24 11:59:57;;;;;;;2.75;0.70;;;16.90;99.90;;;;;;5043849;28;20045;-81
2022/09/24 12:02:44;;;;;;;1.58;0.50;;;16.80;99.90;;;;;;5015000;28;20056;-80
2022/09/24 12:05:44;;;;;;;3.00;1.38;;;16.80;99.90;;;;;;5005587;28;20114;-81
2022/09/24 12:08:19;;;;;;;1.65;0.50;;;16.70;99.90;;;;;;4969778;28;20054;-81
2022/09/24 12:11:12;;;;;;;1.40;0.40;;;16.70;99.90;;;;;;5014601;28;20091;-81
2022/09/24 12:13:51;;;;;;;2.40;0.45;;;16.70;99.90;;;;;;5007357;28;20424;-82
2022/09/24 12:16:25;;;;;;;1.98;0.90;;;16.80;99.90;;;;;;5026067;28;20038;-81
2022/09/24 12:19:29;;;;;;;2.20;1.02;;;16.80;99.90;;;;;;5023006;28;20050;-81
2022/09/24 12:21:57;;;;;;;1.50;0.45;;;16.80;99.90;;;;;;4961416;28;20078;-81
2022/09/24 12:24:59;;;;;;;4.53;1.00;;;16.90;99.90;;;;;;4975931;28;20042;-81
2022/09/24 12:27:33;;;;;;;1.77;0.57;;;16.90;99.90;;;;;;4978409;28;20058;-81
2022/09/24 12:33:04;;;;;;;6.50;1.42;;;16.90;99.90;;;;;;5047065;28;20080;-80
2022/09/24 12:35:52;;;;;;;3.78;0.70;;;17.00;99.90;;;;;;5013529;28;20622;-81
2022/09/24 12:38:41;;;;;;;4.40;0.82;;;17.10;99.90;;;;;;5014408;28;20037;-81
2022/09/24 12:41:31;;;;;;;1.92;0.60;;;17.20;99.90;;;;;;4997732;28;20554;-81
2022/09/24 12:44:07;;;;;;;0.90;0.45;;;17.50;99.90;;;;;;5017041;28;20038;-80
2022/09/24 12:46:45;;;;;;;2.55;0.85;;;17.70;99.90;;;;;;4997585;28;20156;-80
2022/09/24 12:49:23;;;;;;;1.50;0.45;;;17.90;99.90;;;;;;5011848;28;20120;-81
2022/09/24 12:51:55;;;;;;;4.10;1.15;;;18.10;99.90;;;;;;5040545;28;20038;-81
2022/09/24 12:54:37;;;;;;;2.10;0.43;;;18.20;99.90;;;;;;5013580;28;20104;-81
2022/09/24 12:57:07;;;;;;;0.50;0.30;;;18.10;99.90;;;;;;4995240;28;20042;-81
2022/09/24 12:59:33;;;;;;;1.33;0.52;;;18.00;99.90;;;;;;5046000;28;20034;-81
2022/09/24 13:02:22;;;;;;;1.83;0.50;;;17.90;99.90;;;;;;5021521;28;20554;-81
2022/09/24 13:05:13;;;;;;;2.63;0.57;;;17.90;99.90;;;;;;5044915;28;20053;-81
2022/09/24 13:07:39;;;;;;;3.85;0.63;;;17.90;99.90;;;;;;4996830;28;20048;-81
2022/09/24 13:10:14;;;;;;;2.08;0.50;;;17.90;99.90;;;;;;4996412;28;20044;-81
2022/09/24 13:12:40;;;;;;;2.13;0.73;;;18.00;99.90;;;;;;5013264;28;20038;-81
2022/09/24 13:15:18;;;;;;;3.35;0.40;;;18.10;99.90;;;;;;4991413;28;20034;-81
2022/09/24 13:17:46;;;;;;;5.15;1.25;;;18.20;99.90;;;;;;5045589;28;20403;-81
2022/09/24 13:20:40;;;;;;;4.35;0.85;;;18.50;99.90;;;;;;5011510;28;20088;-81
2022/09/24 13:23:18;;;;;;;1.98;0.70;;;18.90;99.90;;;;;;5042415;28;20052;-81